This is the latest recevied weather packets stored in our database for station/object TA2EE-10. If no packets are shown the sender has not sent any weather packets the latest 10 day(s).
| Time | Temp. | Humidity | Pressure | Rain* | Wind** | Luminosity | Snow |
|---|---|---|---|---|---|---|---|
| 1787479216 | 38.89° C | 19% | 912 hPa | - | - | 0 W/m² | - |
| 1787477094 | 37.78° C | 21% | 912 hPa | - | - | 0 W/m² | - |
| 1787474972 | 36.11° C | 23% | 913 hPa | - | - | 0 W/m² | - |
| 1787472850 | 35.56° C | 24% | 913 hPa | - | - | 0 W/m² | - |
| 1787470728 | 35.56° C | 22% | 913 hPa | - | - | 0 W/m² | - |
| 1787468605 | 36.11° C | 23% | 913 hPa | - | - | 0 W/m² | - |
| 1787466482 | 36.67° C | 22% | 913 hPa | - | - | 0 W/m² | - |
| 1787464360 | 36.67° C | 22% | 913 hPa | - | - | 0 W/m² | - |
| 1787462238 | 33.89° C | 26% | 913 hPa | - | - | 0 W/m² | - |
| 1787460116 | 32.22° C | 29% | 912 hPa | - | - | 0 W/m² | - |
| 1787457994 | 31.67° C | 29% | 912 hPa | - | - | 0 W/m² | - |
| 1787455871 | 31.67° C | 29% | 912 hPa | - | - | 0 W/m² | - |
| 1787453749 | 31.67° C | 29% | 912 hPa | - | - | 0 W/m² | - |
| 1787451750 | 31.67° C | 28% | 912 hPa | - | - | 0 W/m² | - |
| 1787451623 | 31.67° C | 28% | 912 hPa | - | - | 0 W/m² | - |
| 1787449500 | 32.22° C | 28% | 911 hPa | - | - | 0 W/m² | - |
| 1787447378 | 32.22° C | 28% | 911 hPa | - | - | 0 W/m² | - |
| 1787445256 | 32.22° C | 28% | 911 hPa | - | - | 0 W/m² | - |
| 1787443133 | 32.22° C | 27% | 911 hPa | - | - | 0 W/m² | - |
| 1787441011 | 32.22° C | 27% | 911 hPa | - | - | 0 W/m² | - |
| 1787438889 | 32.22° C | 27% | 911 hPa | - | - | 0 W/m² | - |
| 1787436766 | 32.78° C | 26% | 911 hPa | - | - | 0 W/m² | - |
| 1787434644 | 32.78° C | 26% | 911 hPa | - | - | 0 W/m² | - |
| 1787434577 | 32.78° C | 26% | 911 hPa | - | - | 0 W/m² | - |
| 1787432455 | 33.33° C | 26% | 911 hPa | - | - | 0 W/m² | - |
* Rain since midnight (hover to see other rain measurements)
** Current wind speed in m/s (hover to see current wind gust speed)